Buoy 16575

sailwx.info

Track history (hours):
 
Tides and Currents Weather Stations Pressure Air Temp Water Temp Dewpoint Dewpoint Depression Visibility Wind Speed Wind Dir Waves Ship Positions

Drifting buoy 16575

Last reported at 2014-Sep-02 20:00 UTC. Time now 2014-Sep-02 21:39 UTC.
Position S 28°30' E 059°54'.

Barometer 1010.3 mb
Water temperature 21.1 ° C

Date/timePositionNaut miles runAvg speedWind from/ knotsBaromVisibWave heightAir tempDewpointWater temp
2014-Sep-02 20:00S 28°30' E 059°54'0 0.0 1010.3 21.1
2014-Sep-02 19:00S 28°30' E 059°54'0 0.0 1009.6 21.1
2014-Sep-02 18:00S 28°30' E 059°54'1 1.4 1008.8 21.1
2014-Sep-02 17:00S 28°31' E 059°53'4 4.1 1009.6 21.1
2014-Sep-02 16:00S 28°33' E 059°49'0 0.0 1008.7 21.1
2014-Sep-02 15:00S 28°33' E 059°49'0 0.4 1007.7 21.1
2014-Sep-02 14:00S 28°33' E 059°48'4 2.0 1004.6 21.2
2014-Sep-02 12:00S 28°36' E 059°44'0 0.0 1006.6 21.2
2014-Sep-02 11:00S 28°36' E 059°44'0 0.0 1007.7 21.2
2014-Sep-02 10:00S 28°36' E 059°44'2 2.4 1008.0 21.2
2014-Sep-02 09:00S 28°37' E 059°42'4 4.4 1011.5 21.2
2014-Sep-02 08:00S 28°36' E 059°37'4 1.4 1009.5 21.2
2014-Sep-02 05:00S 28°35' E 059°32'0 0.0 1012.0 21.1
2014-Sep-02 03:50S 28°35' E 059°32'0 0.1 1011.8 21.1
2014-Sep-02 03:00S 28°35' E 059°32'2 1.6 1011.7 21.1
2014-Sep-02 02:00S 28°34' E 059°31'1 0.6 1012.2 21.2
2014-Sep-02 01:00S 28°34' E 059°30'3 3.4 1012.6 21.2
2014-Sep-02 00:00S 28°33' E 059°27'1 0.5 1012.8 21.2
2014-Sep-01 22:00S 28°32' E 059°26'4 1.8 1014.3 21.2
2014-Sep-01 20:00S 28°30' E 059°23'0 0.0 1015.7 21.2
2014-Sep-01 19:00S 28°30' E 059°23'1 0.4 1016.5 21.2
2014-Sep-01 17:00S 28°29' E 059°22'3 3.3 1017.2 21.2
2014-Sep-01 16:00S 28°27' E 059°19'0 0.0 1016.5 21.2
2014-Sep-01 14:00S 28°27' E 059°19'2 2.0 1015.1 21.2
2014-Sep-01 12:50S 28°26' E 059°17'2 2.0 1013.5 21.3
2014-Sep-01 12:00S 28°24' E 059°16'3 1.3 1014.4 21.3
2014-Sep-01 10:00S 28°22' E 059°15'1 0.6 1021.1 21.4
2014-Sep-01 09:00S 28°23' E 059°15'0 0.0 1020.2 21.3
2014-Sep-01 08:00S 28°23' E 059°15'3 1.4 1018.2 21.3
2014-Sep-01 05:50S 28°19' E 059°15'1 0.9 1022.5 21.3
2014-Sep-01 05:00S 28°19' E 059°15'1 0.6 1022.4 21.3
2014-Sep-01 04:00S 28°18' E 059°15'1 0.8 1025.2 21.3
2014-Sep-01 03:00S 28°18' E 059°16'0 0.3 1022.9 21.3
2014-Sep-01 02:00S 28°18' E 059°15'0 0.1 1020.6 21.3
2014-Sep-01 01:00S 28°18' E 059°15'0 0.1 1021.1 21.3
2014-Aug-31 23:50S 28°18' E 059°15'0 0.3 1021.1 21.3
2014-Aug-31 23:00S 28°18' E 059°15'1 0.7 1022.0 21.4
2014-Aug-31 22:00S 28°18' E 059°15'1 0.6 1022.7 21.3
2014-Aug-31 19:50S 28°17' E 059°14'1 1.1 1024.0 21.3
2014-Aug-31 19:00S 28°16' E 059°13'0 0.2 1023.4 21.3
2014-Aug-31 17:50S 28°16' E 059°13'1 0.9 1024.2 21.3
2014-Aug-31 17:00S 28°15' E 059°14'1 1.0 1024.3 21.3
2014-Aug-31 16:00S 28°14' E 059°14'0 0.0 1024.6 21.3
2014-Aug-31 14:50S 28°14' E 059°14'1 0.3 1023.5 21.3
2014-Aug-31 13:00S 28°14' E 059°14'0 0.2 1018.5 21.4
2014-Aug-31 11:00S 28°13' E 059°14'1 0.4 1022.8 21.4
2014-Aug-31 08:50S 28°13' E 059°13'0 0.0 1026.4 21.3
2014-Aug-31 08:00S 28°13' E 059°13'2 0.8 1027.4 21.4
2014-Aug-31 06:00S 28°11' E 059°13'1 0.5 1029.3 21.3
2014-Aug-31 05:00S 28°11' E 059°13'1 1.3 1027.6 21.3
2014-Aug-31 04:00S 28°10' E 059°14'0 0.0 1031.9 21.3
2014-Aug-31 02:50S 28°10' E 059°14'0 0.0 1027.5 21.2
2014-Aug-31 02:00S 28°10' E 059°14'1 0.7 1026.7 21.2
2014-Aug-31 00:50S 28°09' E 059°15'0 0.4 1025.7 21.2
2014-Aug-31 00:00S 28°09' E 059°15'1 0.7 1026.8 21.2
2014-Aug-30 23:00S 28°09' E 059°15'0 0.1 1027.3 21.2
2014-Aug-30 22:00S 28°09' E 059°15'1 0.3 1027.3 21.2
2014-Aug-30 20:00S 28°09' E 059°16'0 0.1 1028.6 21.2
2014-Aug-30 19:00S 28°08' E 059°16'2 1.5 1026.9 21.2
2014-Aug-30 18:00S 28°08' E 059°18'0 0.4 1027.3 21.2
2014-Aug-30 17:00S 28°09' E 059°18'2 0.6 1027.7 21.1
2014-Aug-30 14:00S 28°10' E 059°19'1 1.4 1024.3 21.1
2014-Aug-30 13:00S 28°11' E 059°19'0 0.0 1026.0 21.1
2014-Aug-30 12:00S 28°11' E 059°19'0 0.1 1027.5 21.0
2014-Aug-30 11:00S 28°12' E 059°19'0 0.0 1027.1 20.8
2014-Aug-30 10:00S 28°12' E 059°19'0 0.0 1024.8 20.6
2014-Aug-30 09:00S 28°12' E 059°19'2 0.5 1026.3 20.6
2014-Aug-30 06:00S 28°11' E 059°21'0 0.2 1031.8 20.6
2014-Aug-30 04:50S 28°11' E 059°21'2 2.0 1031.3 20.6
2014-Aug-30 04:00S 28°11' E 059°23'0 0.0 1031.0 20.6
2014-Aug-30 02:50S 28°11' E 059°23'2 1.3 1029.4 20.7
2014-Aug-30 01:00S 28°13' E 059°25'0 0.4 1027.1 20.7
2014-Aug-29 23:50S 28°14' E 059°25'0 0.5 1027.9 20.7
2014-Aug-29 23:00S 28°14' E 059°25'0 0.4 1027.9 20.7
2014-Aug-29 21:50S 28°14' E 059°25'1 0.7 1028.4 20.8
2014-Aug-29 21:00S 28°15' E 059°25'0 0.2 1027.8 20.8
2014-Aug-29 18:50S 28°15' E 059°26'0 0.4 1026.9 21.0
2014-Aug-29 17:50S 28°16' E 059°26'2 0.8 1028.0 21.0
2014-Aug-29 15:00S 28°18' E 059°26'0 0.4 1026.2 21.1
2014-Aug-29 13:50S 28°18' E 059°26'1 0.9 1024.0 21.1
2014-Aug-29 13:00S 28°19' E 059°26'1 0.8 1022.8 21.1
2014-Aug-29 12:00S 28°20' E 059°26'0 0.4 1024.6 21.1
2014-Aug-29 11:00S 28°20' E 059°26'1 1.2 1022.3 21.1
2014-Aug-29 10:00S 28°21' E 059°25'0 0.0 1021.9 21.1
2014-Aug-29 08:50S 28°21' E 059°25'3 0.9 1026.8 21.0
2014-Aug-29 05:50S 28°24' E 059°25'1 0.8 1027.2 20.7
2014-Aug-29 04:50S 28°25' E 059°24'1 1.2 1027.0 20.6
2014-Aug-29 03:50S 28°26' E 059°24'0 0.3 1024.9 20.5
2014-Aug-29 03:00S 28°26' E 059°24'2 1.0 1028.1 20.5
2014-Aug-29 01:00S 28°28' E 059°24'1 1.3 1023.9 20.5
2014-Aug-28 23:50S 28°29' E 059°23'2 1.0 1022.4 20.5
2014-Aug-28 21:50S 28°31' E 059°23'0 0.0 1021.9 20.3
2014-Aug-28 20:50S 28°31' E 059°23'3 1.2 1022.5 20.3
2014-Aug-28 18:00S 28°34' E 059°22'2 1.8 1022.0 20.2
2014-Aug-28 17:00S 28°36' E 059°20'0 0.0 1020.7 20.1
2014-Aug-28 15:50S 28°36' E 059°20'3 1.4 1020.3 20.1
2014-Aug-28 13:50S 28°38' E 059°19'1 1.7 1016.5 19.9
2014-Aug-28 13:00S 28°39' E 059°19'0 0.0 1020.2 19.7
2014-Aug-28 12:00S 28°39' E 059°19'1 0.6 1015.1 19.7
2014-Aug-28 11:00S 28°40' E 059°19'5 2.4 1011.7 19.7
2014-Aug-28 09:00S 28°45' E 059°19'1 0.1 1018.2 19.5
2014-Aug-28 04:50S 28°45' E 059°19'2 2.8 1017.9 19.3
2014-Aug-28 04:00S 28°48' E 059°19'1 0.4 1023.6 19.3
2014-Aug-28 01:50S 28°48' E 059°20'0 0.0 1016.0 19.2
2014-Aug-28 01:00S 28°48' E 059°20'1 1.1 1014.4 19.2
2014-Aug-27 23:50S 28°50' E 059°19'1 0.7 1016.4 19.3
2014-Aug-27 22:50S 28°50' E 059°19'3 1.5 1017.1 19.3
2014-Aug-27 21:00S 28°52' E 059°17'0 0.0 1015.5 19.3
2014-Aug-27 19:50S 28°52' E 059°17'1 1.3 1014.8 19.3
2014-Aug-27 19:00S 28°52' E 059°16'1 0.5 1014.9 19.3
2014-Aug-27 17:50S 28°53' E 059°15'3 2.8 1014.0 19.3
2014-Aug-27 16:50S 28°54' E 059°12'0 0.0 1014.6 19.3
2014-Aug-27 13:50S 28°54' E 059°12'1 1.2 1009.4 19.5
2014-Aug-27 13:00S 28°55' E 059°14'1 1.3 1012.9 19.6
2014-Aug-27 12:00S 28°55' E 059°12'6 1.8 1014.0 19.6
2014-Aug-27 09:00S 28°58' E 059°07'0 0.0 1016.5 19.7
2014-Aug-27 06:00S 28°58' E 059°07'1 1.2 1015.7 19.7
2014-Aug-27 05:00S 28°59' E 059°06'1 0.7 1016.8 19.7
2014-Aug-27 03:50S 28°59' E 059°05'3 1.1 1016.1 19.7
2014-Aug-27 00:50S 28°59' E 059°01'1 0.6 1012.0 19.7
2014-Aug-26 22:50S 28°59' E 058°60'1 0.7 1012.2 19.8
2014-Aug-26 21:50S 28°60' E 058°59'1 1.2 1012.4 19.8
2014-Aug-26 20:50S 28°60' E 058°58'3 1.4 1012.9 19.8
2014-Aug-26 18:50S 29°01' E 058°55'1 0.7 1012.6 19.9
2014-Aug-26 18:00S 29°01' E 058°54'1 1.0 1012.4 19.8
2014-Aug-26 17:00S 29°01' E 058°53'5 1.3 1011.5 19.8
2014-Aug-26 12:50S 29°01' E 058°47'1 1.2 1010.3 19.9
2014-Aug-26 11:50S 29°01' E 058°46'2 1.6 1009.7 20.0
2014-Aug-26 10:50S 29°00' E 058°44'3 2.6 1002.2 20.0
2014-Aug-26 09:50S 28°59' E 058°41'1 0.2 1013.2 19.9
2014-Aug-26 05:50S 28°59' E 058°40'1 0.7 1017.2 19.7
2014-Aug-26 04:50S 28°59' E 058°39'2 1.6 1017.2 19.6
2014-Aug-26 03:50S 28°58' E 058°38'0 0.1 1013.5 19.7
2014-Aug-26 02:50S 28°58' E 058°38'2 0.8 1012.6 19.7
2014-Aug-26 00:50S 28°57' E 058°36'1 1.4 1012.4 19.8
2014-Aug-26 00:00S 28°56' E 058°35'1 0.7 1012.5 19.9
2014-Aug-25 23:00S 28°56' E 058°35'2 1.4 1012.6 19.9
2014-Aug-25 21:50S 28°56' E 058°34'2 1.6 1012.8 20.0
2014-Aug-25 20:50S 28°56' E 058°32'1 0.5 1012.9 20.1
2014-Aug-25 19:00S 28°56' E 058°31'3 1.4 1013.1 20.1
2014-Aug-25 17:00S 28°55' E 058°28'2 1.1 1013.0 20.2
2014-Aug-25 14:50S 28°55' E 058°25'1 1.1 1013.1 20.2
2014-Aug-25 13:50S 28°55' E 058°24'1 1.4 1012.3 20.2
2014-Aug-25 13:00S 28°55' E 058°22'4 3.8 1011.1 20.3
2014-Aug-25 11:50S 28°53' E 058°18'2 1.4 1011.8 20.4
2014-Aug-25 10:00S 28°52' E 058°15'2 1.0 1012.6 20.6
2014-Aug-25 07:50S 28°51' E 058°13'1 0.4 1012.9 20.7
2014-Aug-25 05:50S 28°51' E 058°12'1 1.5 1015.9 20.7
2014-Aug-25 05:00S 28°51' E 058°11'1 0.7 1015.9 20.6
2014-Aug-25 04:00S 28°50' E 058°10'1 1.1 1013.4 20.6
2014-Aug-25 02:50S 28°50' E 058°08'0 0.0 1014.1 20.6
2014-Aug-25 01:50S 28°50' E 058°08'4 1.8 1011.9 20.6
2014-Aug-24 23:50S 28°48' E 058°05'0 0.1 1011.8 20.7
2014-Aug-24 22:50S 28°48' E 058°05'0 0.0 1012.0 20.8
2014-Aug-24 21:50S 28°48' E 058°05'4 1.4 1012.4 21.1
2014-Aug-24 18:50S 28°47' E 058°00'2 1.9 1012.7 21.3
2014-Aug-24 18:00S 28°47' E 057°58'0 0.4 1013.0 21.3
2014-Aug-24 16:50S 28°47' E 057°58'3 1.8 1012.7 21.4
2014-Aug-24 15:00S 28°46' E 057°55'2 1.2 1011.6 21.5
2014-Aug-24 13:00S 28°45' E 057°52'3 2.1 1009.9 21.6
2014-Aug-24 11:50S 28°42' E 057°51'0 0.0 1011.9 21.6
2014-Aug-24 10:50S 28°42' E 057°51'0 0.0 1014.0 21.6
2014-Aug-24 10:00S 28°42' E 057°51'2 1.6 1014.8 21.6
2014-Aug-24 08:50S 28°42' E 057°49'4 1.3 1012.2 21.6
2014-Aug-24 05:50S 28°38' E 057°47'1 1.1 1015.0 21.7
2014-Aug-24 04:50S 28°37' E 057°46'2 2.0 1014.9 21.7
2014-Aug-24 03:50S 28°35' E 057°45'1 0.6 1014.2 21.7
2014-Aug-24 02:00S 28°35' E 057°46'1 0.8 1013.2 21.7
2014-Aug-24 00:50S 28°34' E 057°46'1 0.7 1013.2 21.7
2014-Aug-23 23:50S 28°33' E 057°46'2 0.9 1013.5 21.8
2014-Aug-23 21:50S 28°31' E 057°46'1 0.8 1014.1 21.7
2014-Aug-23 20:50S 28°30' E 057°46'   1015.0 21.7
Track history (hours):
 
Tides and Currents Weather Stations Pressure Air Temp Water Temp Dewpoint Dewpoint Depression Visibility Wind Speed Wind Dir Waves Ship Positions

Drifting buoy 16575

Last reported at 2014-Sep-02 20:00 UTC. Time now 2014-Sep-02 21:39 UTC.
Position S 28°30' E 059°54'.

Barometer 1010.3 mb
Water temperature 21.1 ° C

Date/timePositionNaut miles runAvg speedWind from/ knotsBaromVisibWave heightAir tempDewpointWater temp
2014-Sep-02 20:00S 28°30' E 059°54'0 0.0 1010.3 21.1
2014-Sep-02 19:00S 28°30' E 059°54'0 0.0 1009.6 21.1
2014-Sep-02 18:00S 28°30' E 059°54'1 1.4 1008.8 21.1
2014-Sep-02 17:00S 28°31' E 059°53'4 4.1 1009.6 21.1
2014-Sep-02 16:00S 28°33' E 059°49'0 0.0 1008.7 21.1
2014-Sep-02 15:00S 28°33' E 059°49'0 0.4 1007.7 21.1
2014-Sep-02 14:00S 28°33' E 059°48'4 2.0 1004.6 21.2
2014-Sep-02 12:00S 28°36' E 059°44'0 0.0 1006.6 21.2
2014-Sep-02 11:00S 28°36' E 059°44'0 0.0 1007.7 21.2
2014-Sep-02 10:00S 28°36' E 059°44'2 2.4 1008.0 21.2
2014-Sep-02 09:00S 28°37' E 059°42'4 4.4 1011.5 21.2
2014-Sep-02 08:00S 28°36' E 059°37'4 1.4 1009.5 21.2
2014-Sep-02 05:00S 28°35' E 059°32'0 0.0 1012.0 21.1
2014-Sep-02 03:50S 28°35' E 059°32'0 0.1 1011.8 21.1
2014-Sep-02 03:00S 28°35' E 059°32'2 1.6 1011.7 21.1
2014-Sep-02 02:00S 28°34' E 059°31'1 0.6 1012.2 21.2
2014-Sep-02 01:00S 28°34' E 059°30'3 3.4 1012.6 21.2
2014-Sep-02 00:00S 28°33' E 059°27'1 0.5 1012.8 21.2
2014-Sep-01 22:00S 28°32' E 059°26'4 1.8 1014.3 21.2
2014-Sep-01 20:00S 28°30' E 059°23'0 0.0 1015.7 21.2
2014-Sep-01 19:00S 28°30' E 059°23'1 0.4 1016.5 21.2
2014-Sep-01 17:00S 28°29' E 059°22'3 3.3 1017.2 21.2
2014-Sep-01 16:00S 28°27' E 059°19'0 0.0 1016.5 21.2
2014-Sep-01 14:00S 28°27' E 059°19'2 2.0 1015.1 21.2
2014-Sep-01 12:50S 28°26' E 059°17'2 2.0 1013.5 21.3
2014-Sep-01 12:00S 28°24' E 059°16'3 1.3 1014.4 21.3
2014-Sep-01 10:00S 28°22' E 059°15'1 0.6 1021.1 21.4
2014-Sep-01 09:00S 28°23' E 059°15'0 0.0 1020.2 21.3
2014-Sep-01 08:00S 28°23' E 059°15'3 1.4 1018.2 21.3
2014-Sep-01 05:50S 28°19' E 059°15'1 0.9 1022.5 21.3
2014-Sep-01 05:00S 28°19' E 059°15'1 0.6 1022.4 21.3
2014-Sep-01 04:00S 28°18' E 059°15'1 0.8 1025.2 21.3
2014-Sep-01 03:00S 28°18' E 059°16'0 0.3 1022.9 21.3
2014-Sep-01 02:00S 28°18' E 059°15'0 0.1 1020.6 21.3
2014-Sep-01 01:00S 28°18' E 059°15'0 0.1 1021.1 21.3
2014-Aug-31 23:50S 28°18' E 059°15'0 0.3 1021.1 21.3
2014-Aug-31 23:00S 28°18' E 059°15'1 0.7 1022.0 21.4
2014-Aug-31 22:00S 28°18' E 059°15'1 0.6 1022.7 21.3
2014-Aug-31 19:50S 28°17' E 059°14'1 1.1 1024.0 21.3
2014-Aug-31 19:00S 28°16' E 059°13'0 0.2 1023.4 21.3
2014-Aug-31 17:50S 28°16' E 059°13'1 0.9 1024.2 21.3
2014-Aug-31 17:00S 28°15' E 059°14'1 1.0 1024.3 21.3
2014-Aug-31 16:00S 28°14' E 059°14'0 0.0 1024.6 21.3
2014-Aug-31 14:50S 28°14' E 059°14'1 0.3 1023.5 21.3
2014-Aug-31 13:00S 28°14' E 059°14'0 0.2 1018.5 21.4
2014-Aug-31 11:00S 28°13' E 059°14'1 0.4 1022.8 21.4
2014-Aug-31 08:50S 28°13' E 059°13'0 0.0 1026.4 21.3
2014-Aug-31 08:00S 28°13' E 059°13'2 0.8 1027.4 21.4
2014-Aug-31 06:00S 28°11' E 059°13'1 0.5 1029.3 21.3
2014-Aug-31 05:00S 28°11' E 059°13'1 1.3 1027.6 21.3
2014-Aug-31 04:00S 28°10' E 059°14'0 0.0 1031.9 21.3
2014-Aug-31 02:50S 28°10' E 059°14'0 0.0 1027.5 21.2
2014-Aug-31 02:00S 28°10' E 059°14'1 0.7 1026.7 21.2
2014-Aug-31 00:50S 28°09' E 059°15'0 0.4 1025.7 21.2
2014-Aug-31 00:00S 28°09' E 059°15'1 0.7 1026.8 21.2
2014-Aug-30 23:00S 28°09' E 059°15'0 0.1 1027.3 21.2
2014-Aug-30 22:00S 28°09' E 059°15'1 0.3 1027.3 21.2
2014-Aug-30 20:00S 28°09' E 059°16'0 0.1 1028.6 21.2
2014-Aug-30 19:00S 28°08' E 059°16'2 1.5 1026.9 21.2
2014-Aug-30 18:00S 28°08' E 059°18'0 0.4 1027.3 21.2
2014-Aug-30 17:00S 28°09' E 059°18'2 0.6 1027.7 21.1
2014-Aug-30 14:00S 28°10' E 059°19'1 1.4 1024.3 21.1
2014-Aug-30 13:00S 28°11' E 059°19'0 0.0 1026.0 21.1
2014-Aug-30 12:00S 28°11' E 059°19'0 0.1 1027.5 21.0
2014-Aug-30 11:00S 28°12' E 059°19'0 0.0 1027.1 20.8
2014-Aug-30 10:00S 28°12' E 059°19'0 0.0 1024.8 20.6
2014-Aug-30 09:00S 28°12' E 059°19'2 0.5 1026.3 20.6
2014-Aug-30 06:00S 28°11' E 059°21'0 0.2 1031.8 20.6
2014-Aug-30 04:50S 28°11' E 059°21'2 2.0 1031.3 20.6
2014-Aug-30 04:00S 28°11' E 059°23'0 0.0 1031.0 20.6
2014-Aug-30 02:50S 28°11' E 059°23'2 1.3 1029.4 20.7
2014-Aug-30 01:00S 28°13' E 059°25'0 0.4 1027.1 20.7
2014-Aug-29 23:50S 28°14' E 059°25'0 0.5 1027.9 20.7
2014-Aug-29 23:00S 28°14' E 059°25'0 0.4 1027.9 20.7
2014-Aug-29 21:50S 28°14' E 059°25'1 0.7 1028.4 20.8
2014-Aug-29 21:00S 28°15' E 059°25'0 0.2 1027.8 20.8
2014-Aug-29 18:50S 28°15' E 059°26'0 0.4 1026.9 21.0
2014-Aug-29 17:50S 28°16' E 059°26'2 0.8 1028.0 21.0
2014-Aug-29 15:00S 28°18' E 059°26'0 0.4 1026.2 21.1
2014-Aug-29 13:50S 28°18' E 059°26'1 0.9 1024.0 21.1
2014-Aug-29 13:00S 28°19' E 059°26'1 0.8 1022.8 21.1
2014-Aug-29 12:00S 28°20' E 059°26'0 0.4 1024.6 21.1
2014-Aug-29 11:00S 28°20' E 059°26'1 1.2 1022.3 21.1
2014-Aug-29 10:00S 28°21' E 059°25'0 0.0 1021.9 21.1
2014-Aug-29 08:50S 28°21' E 059°25'3 0.9 1026.8 21.0
2014-Aug-29 05:50S 28°24' E 059°25'1 0.8 1027.2 20.7
2014-Aug-29 04:50S 28°25' E 059°24'1 1.2 1027.0 20.6
2014-Aug-29 03:50S 28°26' E 059°24'0 0.3 1024.9 20.5
2014-Aug-29 03:00S 28°26' E 059°24'2 1.0 1028.1 20.5
2014-Aug-29 01:00S 28°28' E 059°24'1 1.3 1023.9 20.5
2014-Aug-28 23:50S 28°29' E 059°23'2 1.0 1022.4 20.5
2014-Aug-28 21:50S 28°31' E 059°23'0 0.0 1021.9 20.3
2014-Aug-28 20:50S 28°31' E 059°23'3 1.2 1022.5 20.3
2014-Aug-28 18:00S 28°34' E 059°22'2 1.8 1022.0 20.2
2014-Aug-28 17:00S 28°36' E 059°20'0 0.0 1020.7 20.1
2014-Aug-28 15:50S 28°36' E 059°20'3 1.4 1020.3 20.1
2014-Aug-28 13:50S 28°38' E 059°19'1 1.7 1016.5 19.9
2014-Aug-28 13:00S 28°39' E 059°19'0 0.0 1020.2 19.7
2014-Aug-28 12:00S 28°39' E 059°19'1 0.6 1015.1 19.7
2014-Aug-28 11:00S 28°40' E 059°19'5 2.4 1011.7 19.7
2014-Aug-28 09:00S 28°45' E 059°19'1 0.1 1018.2 19.5
2014-Aug-28 04:50S 28°45' E 059°19'2 2.8 1017.9 19.3
2014-Aug-28 04:00S 28°48' E 059°19'1 0.4 1023.6 19.3
2014-Aug-28 01:50S 28°48' E 059°20'0 0.0 1016.0 19.2
2014-Aug-28 01:00S 28°48' E 059°20'1 1.1 1014.4 19.2
2014-Aug-27 23:50S 28°50' E 059°19'1 0.7 1016.4 19.3
2014-Aug-27 22:50S 28°50' E 059°19'3 1.5 1017.1 19.3
2014-Aug-27 21:00S 28°52' E 059°17'0 0.0 1015.5 19.3
2014-Aug-27 19:50S 28°52' E 059°17'1 1.3 1014.8 19.3
2014-Aug-27 19:00S 28°52' E 059°16'1 0.5 1014.9 19.3
2014-Aug-27 17:50S 28°53' E 059°15'3 2.8 1014.0 19.3
2014-Aug-27 16:50S 28°54' E 059°12'0 0.0 1014.6 19.3
2014-Aug-27 13:50S 28°54' E 059°12'1 1.2 1009.4 19.5
2014-Aug-27 13:00S 28°55' E 059°14'1 1.3 1012.9 19.6
2014-Aug-27 12:00S 28°55' E 059°12'6 1.8 1014.0 19.6
2014-Aug-27 09:00S 28°58' E 059°07'0 0.0 1016.5 19.7
2014-Aug-27 06:00S 28°58' E 059°07'1 1.2 1015.7 19.7
2014-Aug-27 05:00S 28°59' E 059°06'1 0.7 1016.8 19.7
2014-Aug-27 03:50S 28°59' E 059°05'3 1.1 1016.1 19.7
2014-Aug-27 00:50S 28°59' E 059°01'1 0.6 1012.0 19.7
2014-Aug-26 22:50S 28°59' E 058°60'1 0.7 1012.2 19.8
2014-Aug-26 21:50S 28°60' E 058°59'1 1.2 1012.4 19.8
2014-Aug-26 20:50S 28°60' E 058°58'3 1.4 1012.9 19.8
2014-Aug-26 18:50S 29°01' E 058°55'1 0.7 1012.6 19.9
2014-Aug-26 18:00S 29°01' E 058°54'1 1.0 1012.4 19.8
2014-Aug-26 17:00S 29°01' E 058°53'5 1.3 1011.5 19.8
2014-Aug-26 12:50S 29°01' E 058°47'1 1.2 1010.3 19.9
2014-Aug-26 11:50S 29°01' E 058°46'2 1.6 1009.7 20.0
2014-Aug-26 10:50S 29°00' E 058°44'3 2.6 1002.2 20.0
2014-Aug-26 09:50S 28°59' E 058°41'1 0.2 1013.2 19.9
2014-Aug-26 05:50S 28°59' E 058°40'1 0.7 1017.2 19.7
2014-Aug-26 04:50S 28°59' E 058°39'2 1.6 1017.2 19.6
2014-Aug-26 03:50S 28°58' E 058°38'0 0.1 1013.5 19.7
2014-Aug-26 02:50S 28°58' E 058°38'2 0.8 1012.6 19.7
2014-Aug-26 00:50S 28°57' E 058°36'1 1.4 1012.4 19.8
2014-Aug-26 00:00S 28°56' E 058°35'1 0.7 1012.5 19.9
2014-Aug-25 23:00S 28°56' E 058°35'2 1.4 1012.6 19.9
2014-Aug-25 21:50S 28°56' E 058°34'2 1.6 1012.8 20.0
2014-Aug-25 20:50S 28°56' E 058°32'1 0.5 1012.9 20.1
2014-Aug-25 19:00S 28°56' E 058°31'3 1.4 1013.1 20.1
2014-Aug-25 17:00S 28°55' E 058°28'2 1.1 1013.0 20.2
2014-Aug-25 14:50S 28°55' E 058°25'1 1.1 1013.1 20.2
2014-Aug-25 13:50S 28°55' E 058°24'1 1.4 1012.3 20.2
2014-Aug-25 13:00S 28°55' E 058°22'4 3.8 1011.1 20.3
2014-Aug-25 11:50S 28°53' E 058°18'2 1.4 1011.8 20.4
2014-Aug-25 10:00S 28°52' E 058°15'2 1.0 1012.6 20.6
2014-Aug-25 07:50S 28°51' E 058°13'1 0.4 1012.9 20.7
2014-Aug-25 05:50S 28°51' E 058°12'1 1.5 1015.9 20.7
2014-Aug-25 05:00S 28°51' E 058°11'1 0.7 1015.9 20.6
2014-Aug-25 04:00S 28°50' E 058°10'1 1.1 1013.4 20.6
2014-Aug-25 02:50S 28°50' E 058°08'0 0.0 1014.1 20.6
2014-Aug-25 01:50S 28°50' E 058°08'4 1.8 1011.9 20.6
2014-Aug-24 23:50S 28°48' E 058°05'0 0.1 1011.8 20.7
2014-Aug-24 22:50S 28°48' E 058°05'0 0.0 1012.0 20.8
2014-Aug-24 21:50S 28°48' E 058°05'4 1.4 1012.4 21.1
2014-Aug-24 18:50S 28°47' E 058°00'2 1.9 1012.7 21.3
2014-Aug-24 18:00S 28°47' E 057°58'0 0.4 1013.0 21.3
2014-Aug-24 16:50S 28°47' E 057°58'3 1.8 1012.7 21.4
2014-Aug-24 15:00S 28°46' E 057°55'2 1.2 1011.6 21.5
2014-Aug-24 13:00S 28°45' E 057°52'3 2.1 1009.9 21.6
2014-Aug-24 11:50S 28°42' E 057°51'0 0.0 1011.9 21.6
2014-Aug-24 10:50S 28°42' E 057°51'0 0.0 1014.0 21.6
2014-Aug-24 10:00S 28°42' E 057°51'2 1.6 1014.8 21.6
2014-Aug-24 08:50S 28°42' E 057°49'4 1.3 1012.2 21.6
2014-Aug-24 05:50S 28°38' E 057°47'1 1.1 1015.0 21.7
2014-Aug-24 04:50S 28°37' E 057°46'2 2.0 1014.9 21.7
2014-Aug-24 03:50S 28°35' E 057°45'1 0.6 1014.2 21.7
2014-Aug-24 02:00S 28°35' E 057°46'1 0.8 1013.2 21.7
2014-Aug-24 00:50S 28°34' E 057°46'1 0.7 1013.2 21.7
2014-Aug-23 23:50S 28°33' E 057°46'2 0.9 1013.5 21.8
2014-Aug-23 21:50S 28°31' E 057°46'1 0.8 1014.1 21.7
2014-Aug-23 20:50S 28°30' E 057°46'   1015.0 21.7

Dump ship's entire track history